createdAt,value
2019-05-30T00:02:31.765Z,101672.47
2019-05-30T00:07:37.283Z,101669.02
2019-05-30T00:12:42.758Z,101669.20
2019-05-30T00:17:48.217Z,101672.38
2019-05-30T00:22:54.633Z,101661.63
2019-05-30T00:28:01.105Z,101662.67
2019-05-30T00:33:07.120Z,101660.08
2019-05-30T00:38:12.745Z,101660.70
2019-05-30T00:43:18.264Z,101665.09
2019-05-30T00:48:23.698Z,101665.72
2019-05-30T00:53:29.130Z,101667.22
2019-05-30T00:58:34.558Z,101665.20
2019-05-30T01:03:39.941Z,101663.59
2019-05-30T01:08:45.394Z,101665.91
2019-05-30T01:13:50.996Z,101664.13
2019-05-30T01:18:57.025Z,101665.36
2019-05-30T01:24:03.534Z,101648.18
2019-05-30T01:29:09.049Z,101646.59
2019-05-30T01:34:14.464Z,101642.33
2019-05-30T01:39:19.928Z,101648.67
2019-05-30T01:44:25.320Z,101645.53
2019-05-30T01:49:30.738Z,101646.61
2019-05-30T01:54:36.229Z,101651.68
2019-05-30T01:59:41.727Z,101650.32
2019-05-30T02:04:47.178Z,101649.36
2019-05-30T02:09:52.734Z,101643.00
2019-05-30T02:14:59.330Z,101644.09
2019-05-30T02:20:05.810Z,101644.50
2019-05-30T02:25:11.309Z,101647.13
2019-05-30T02:30:17.700Z,101648.06
2019-05-30T02:35:23.642Z,101653.81
2019-05-30T02:40:29.140Z,101657.70
2019-05-30T02:45:34.587Z,101659.00
2019-05-30T02:50:40.158Z,101654.52
2019-05-30T02:55:45.784Z,101652.37
2019-05-30T03:00:51.364Z,101654.52
2019-05-30T03:05:57.028Z,101659.78
2019-05-30T03:11:04.444Z,101662.89
2019-05-30T03:16:11.818Z,101667.64
2019-05-30T03:21:16.970Z,101663.38
2019-05-30T03:26:22.396Z,101667.23
2019-05-30T03:31:29.869Z,101669.49
2019-05-30T03:36:35.132Z,101674.92
2019-05-30T03:41:40.685Z,101674.44
2019-05-30T03:46:50.734Z,101680.83
2019-05-30T03:51:56.525Z,101687.34
2019-05-30T03:57:11.239Z,101696.17
2019-05-30T04:02:30.364Z,101711.68
2019-05-30T04:07:36.307Z,101707.66
2019-05-30T04:13:03.617Z,101697.91
2019-05-30T04:18:10.137Z,101695.77
2019-05-30T04:23:16.939Z,101692.44
2019-05-30T04:28:23.319Z,101698.52
2019-05-30T04:33:33.031Z,101709.37
2019-05-30T04:38:35.900Z,101712.92
2019-05-30T04:43:41.483Z,101708.75
2019-05-30T04:48:47.116Z,101698.05
2019-05-30T04:53:52.538Z,101697.57
2019-05-30T04:58:58.087Z,101707.50
2019-05-30T05:04:04.070Z,101711.43
2019-05-30T05:09:09.585Z,101719.44
2019-05-30T05:14:16.268Z,101715.02
2019-05-30T05:19:25.967Z,101723.05
2019-05-30T05:24:30.710Z,101715.50
2019-05-30T05:29:36.183Z,101720.73
2019-05-30T05:34:41.581Z,101716.27
2019-05-30T05:39:47.125Z,101716.03
2019-05-30T05:44:52.874Z,101719.89
2019-05-30T05:49:58.433Z,101723.22
2019-05-30T05:55:03.907Z,101726.50
2019-05-30T06:00:09.417Z,101728.52
2019-05-30T06:05:15.958Z,101731.00
2019-05-30T06:10:21.873Z,101730.25
2019-05-30T06:15:27.347Z,101732.01
2019-05-30T06:20:32.767Z,101730.42
2019-05-30T06:25:38.448Z,101737.90
2019-05-30T06:30:44.047Z,101732.64
2019-05-30T06:35:49.499Z,101736.91
2019-05-30T06:40:55.065Z,101742.20
2019-05-30T06:46:00.598Z,101740.16
2019-05-30T06:51:06.075Z,101743.75
2019-05-30T06:56:11.701Z,101742.58
2019-05-30T07:01:17.166Z,101739.61
2019-05-30T07:06:23.209Z,101746.63
2019-05-30T07:11:29.409Z,101741.58
2019-05-30T07:16:34.888Z,101743.16
2019-05-30T07:21:40.536Z,101746.81
2019-05-30T07:26:45.997Z,101758.35
2019-05-30T07:31:51.424Z,101762.34
2019-05-30T07:36:56.982Z,101762.23
2019-05-30T07:42:06.159Z,101765.16
2019-05-30T07:47:09.582Z,101770.75
2019-05-30T07:52:15.053Z,101770.97
2019-05-30T07:57:20.460Z,101778.10
2019-05-30T08:02:27.411Z,101772.49
2019-05-30T08:07:33.036Z,101774.32
2019-05-30T08:12:38.664Z,101776.41
2019-05-30T08:17:44.629Z,101772.48
2019-05-30T08:22:50.249Z,101763.23
2019-05-30T08:27:55.741Z,101764.12
2019-05-30T08:33:01.186Z,101764.70
2019-05-30T08:38:06.713Z,101765.01
2019-05-30T08:43:12.387Z,101754.44
2019-05-30T08:48:17.849Z,101757.39
2019-05-30T08:53:23.280Z,101757.23
2019-05-30T08:58:28.714Z,101754.15
2019-05-30T09:03:34.237Z,101743.23
2019-05-30T09:08:40.038Z,101741.86
2019-05-30T09:13:46.606Z,101734.06
2019-05-30T09:18:52.368Z,101733.11
2019-05-30T09:24:01.256Z,101730.06
2019-05-30T09:29:04.946Z,101734.58
2019-05-30T09:34:12.123Z,101732.06
2019-05-30T09:39:17.827Z,101737.26
2019-05-30T09:44:33.145Z,101737.58
2019-05-30T09:49:38.644Z,101736.76
2019-05-30T09:54:44.334Z,101741.94
2019-05-30T09:59:50.500Z,101744.50
2019-05-30T10:04:56.224Z,101754.58
2019-05-30T10:10:01.661Z,101758.20
2019-05-30T10:15:08.277Z,101759.55
2019-05-30T10:20:13.744Z,101765.74
2019-05-30T10:25:19.210Z,101760.60
2019-05-30T10:30:24.985Z,101755.87
2019-05-30T10:35:31.243Z,101762.73
2019-05-30T10:40:36.756Z,101756.55
2019-05-30T10:45:42.266Z,101759.04
2019-05-30T10:50:48.570Z,101752.25
2019-05-30T10:55:54.826Z,101748.41
2019-05-30T11:01:00.409Z,101754.44
2019-05-30T11:06:39.172Z,101753.13
2019-05-30T11:11:44.832Z,101752.91
2019-05-30T11:16:51.700Z,101759.60
2019-05-30T11:21:58.176Z,101762.02
2019-05-30T11:27:03.667Z,101759.31
2019-05-30T11:32:09.246Z,101761.38
2019-05-30T11:37:18.809Z,101753.81
2019-05-30T11:42:22.044Z,101755.41
2019-05-30T11:47:27.532Z,101759.37
2019-05-30T11:52:33.054Z,101755.25
2019-05-30T11:57:38.516Z,101758.72
2019-05-30T12:02:43.947Z,101760.81
2019-05-30T12:07:50.614Z,101770.33
2019-05-30T12:12:57.330Z,101770.98
2019-05-30T12:18:02.882Z,101779.38
2019-05-30T12:23:08.406Z,101776.73
2019-05-30T12:28:13.836Z,101783.35
2019-05-30T12:33:19.269Z,101781.33
2019-05-30T12:38:24.724Z,101781.59
2019-05-30T12:43:30.181Z,101783.09
2019-05-30T12:48:35.764Z,101791.27
2019-05-30T12:53:41.191Z,101790.40
2019-05-30T12:58:46.733Z,101785.08
2019-05-30T13:03:52.303Z,101795.88
2019-05-30T13:08:57.749Z,101799.31
2019-05-30T13:14:03.243Z,101793.70
2019-05-30T13:19:08.697Z,101794.76
2019-05-30T13:24:14.389Z,101802.41
2019-05-30T13:29:19.869Z,101818.20
2019-05-30T13:34:25.289Z,101826.36
2019-05-30T13:39:30.952Z,101824.06
2019-05-30T13:44:36.542Z,101833.41
2019-05-30T13:49:42.044Z,101836.95
2019-05-30T13:54:47.664Z,101822.11
2019-05-30T13:59:53.121Z,101828.02
2019-05-30T14:04:59.915Z,101828.39
2019-05-30T14:10:06.420Z,101826.10
2019-05-30T14:15:14.281Z,101824.46
2019-05-30T14:20:19.970Z,101825.71
2019-05-30T14:25:25.395Z,101820.27
2019-05-30T14:30:30.894Z,101829.07
2019-05-30T14:35:36.450Z,101826.75
2019-05-30T14:40:42.051Z,101826.91
2019-05-30T14:45:47.485Z,101826.11
2019-05-30T14:50:53.009Z,101829.02
2019-05-30T14:55:58.549Z,101829.29
2019-05-30T15:01:05.045Z,101814.11
2019-05-30T15:06:12.882Z,101824.45
2019-05-30T15:11:17.846Z,101816.58
2019-05-30T15:16:23.307Z,101810.33
2019-05-30T15:21:28.721Z,101818.83
2019-05-30T15:26:34.170Z,101810.92
2019-05-30T15:31:39.673Z,101795.00
2019-05-30T15:36:45.168Z,101801.38
2019-05-30T15:41:50.608Z,101804.69
2019-05-30T15:46:56.115Z,101804.11
2019-05-30T15:52:01.527Z,101804.38
2019-05-30T15:57:06.931Z,101805.70
2019-05-30T16:02:12.427Z,101802.28
2019-05-30T16:07:18.819Z,101788.95
2019-05-30T16:12:24.248Z,101794.41
2019-05-30T16:17:29.687Z,101800.05
2019-05-30T16:22:35.161Z,101791.69
2019-05-30T16:27:40.588Z,101802.33
2019-05-30T16:32:46.068Z,101798.83
2019-05-30T16:37:51.561Z,101804.08
2019-05-30T16:42:57.540Z,101797.03
2019-05-30T16:48:02.978Z,101801.27
2019-05-30T16:53:08.642Z,101797.08
2019-05-30T16:58:15.367Z,101804.33
2019-05-30T17:03:21.926Z,101799.48
2019-05-30T17:08:27.542Z,101805.33
2019-05-30T17:13:33.012Z,101799.53
2019-05-30T17:18:38.518Z,101798.00
2019-05-30T17:23:44.010Z,101793.20
2019-05-30T17:28:49.428Z,101793.91
2019-05-30T17:33:54.945Z,101792.16
2019-05-30T17:39:00.546Z,101791.86
2019-05-30T17:44:06.065Z,101789.19
2019-05-30T17:49:11.489Z,101792.91
2019-05-30T17:54:17.292Z,101793.13
2019-05-30T17:59:24.254Z,101796.64
2019-05-30T18:04:30.774Z,101800.80
2019-05-30T18:09:36.416Z,101794.91
2019-05-30T18:14:42.286Z,101799.42
2019-05-30T18:19:47.861Z,101799.48
2019-05-30T18:24:53.511Z,101803.16
2019-05-30T18:29:59.082Z,101806.61
2019-05-30T18:35:04.817Z,101798.16
2019-05-30T18:40:11.340Z,101802.08
2019-05-30T18:45:24.955Z,101803.14
2019-05-30T18:50:31.659Z,101814.25
2019-05-30T18:55:37.233Z,101817.69
2019-05-30T19:00:42.715Z,101819.10
2019-05-30T19:05:48.641Z,101819.48
2019-05-30T19:10:54.312Z,101822.63
2019-05-30T19:15:59.761Z,101839.30
2019-05-30T19:21:05.314Z,101834.81
2019-05-30T19:26:11.274Z,101842.78
2019-05-30T19:31:17.003Z,101850.25
2019-05-30T19:36:22.488Z,101856.70
2019-05-30T19:41:41.606Z,101860.52
2019-05-30T19:46:36.239Z,101874.78
2019-05-30T19:51:42.342Z,101880.89
2019-05-30T19:56:47.785Z,101874.55
2019-05-30T20:01:53.488Z,101875.02
2019-05-30T20:06:59.201Z,101877.25
2019-05-30T20:12:08.634Z,101880.08
2019-05-30T20:17:12.124Z,101887.11
2019-05-30T20:22:17.567Z,101889.97
2019-05-30T20:27:23.239Z,101897.16
2019-05-30T20:32:28.926Z,101905.23
2019-05-30T20:37:34.619Z,101903.17
2019-05-30T20:42:41.051Z,101909.20
2019-05-30T20:47:47.506Z,101907.38
2019-05-30T20:52:53.016Z,101916.03
2019-05-30T20:57:58.435Z,101916.22
2019-05-30T21:03:04.157Z,101925.92
2019-05-30T21:08:09.650Z,101936.39
2019-05-30T21:13:15.148Z,101943.25
2019-05-30T21:18:20.658Z,101948.34
2019-05-30T21:23:26.153Z,101946.61
2019-05-30T21:28:31.669Z,101948.04
2019-05-30T21:33:37.689Z,101956.53
2019-05-30T21:38:43.954Z,101957.03
2019-05-30T21:43:49.409Z,101954.56
2019-05-30T21:48:54.933Z,101964.84
2019-05-30T21:54:00.326Z,101972.45
2019-05-30T21:59:05.782Z,101969.70
2019-05-30T22:04:11.231Z,101966.67
2019-05-30T22:09:16.735Z,101969.19
2019-05-30T22:14:22.374Z,101971.89
2019-05-30T22:19:27.829Z,101972.50
2019-05-30T22:24:33.338Z,101977.03
2019-05-30T22:29:40.458Z,101969.68
2019-05-30T22:34:46.654Z,101971.94
2019-05-30T22:39:53.041Z,101972.41
2019-05-30T22:44:58.830Z,101972.77
2019-05-30T22:50:04.318Z,101972.08
2019-05-30T22:55:09.806Z,101972.06
2019-05-30T23:00:15.956Z,101963.34
2019-05-30T23:05:21.368Z,101965.73
2019-05-30T23:10:26.882Z,101958.95
2019-05-30T23:15:32.370Z,101959.42
2019-05-30T23:20:37.890Z,101962.25
2019-05-30T23:25:43.513Z,101958.53
2019-05-30T23:30:49.849Z,101962.77
2019-05-30T23:35:56.521Z,101958.61
2019-05-30T23:41:02.164Z,101962.03
2019-05-30T23:46:07.581Z,101962.78
2019-05-30T23:51:13.136Z,101950.55
2019-05-30T23:56:18.897Z,101954.88
